sensor_id;sensor_type;location;lat;lon;timestamp;P1;durP1;ratioP1;P2;durP2;ratioP2
84168;SDS011;74295;50.146;8.794;2024-01-25T00:02:25;24.40;;;6.07;;
84168;SDS011;74295;50.146;8.794;2024-01-25T00:12:28;32.70;;;6.47;;
84168;SDS011;74295;50.146;8.794;2024-01-25T00:22:32;30.57;;;6.23;;
84168;SDS011;74295;50.146;8.794;2024-01-25T00:32:38;26.50;;;5.97;;
84168;SDS011;74295;50.146;8.794;2024-01-25T00:42:43;29.40;;;6.03;;
84168;SDS011;74295;50.146;8.794;2024-01-25T00:52:51;22.00;;;4.93;;
84168;SDS011;74295;50.146;8.794;2024-01-25T01:02:55;37.77;;;6.23;;
84168;SDS011;74295;50.146;8.794;2024-01-25T01:13:00;30.20;;;5.93;;
84168;SDS011;74295;50.146;8.794;2024-01-25T01:23:04;24.03;;;5.57;;
84168;SDS011;74295;50.146;8.794;2024-01-25T01:33:07;24.17;;;5.07;;
84168;SDS011;74295;50.146;8.794;2024-01-25T01:43:18;22.73;;;5.57;;
84168;SDS011;74295;50.146;8.794;2024-01-25T01:53:22;27.80;;;6.70;;
84168;SDS011;74295;50.146;8.794;2024-01-25T02:03:26;24.40;;;6.03;;
84168;SDS011;74295;50.146;8.794;2024-01-25T02:13:29;25.77;;;6.03;;
84168;SDS011;74295;50.146;8.794;2024-01-25T02:23:33;23.43;;;5.37;;
84168;SDS011;74295;50.146;8.794;2024-01-25T02:33:36;22.40;;;5.43;;
84168;SDS011;74295;50.146;8.794;2024-01-25T02:43:40;21.60;;;4.70;;
84168;SDS011;74295;50.146;8.794;2024-01-25T02:53:43;25.53;;;5.93;;
84168;SDS011;74295;50.146;8.794;2024-01-25T03:03:46;20.07;;;5.73;;
84168;SDS011;74295;50.146;8.794;2024-01-25T03:13:49;29.57;;;5.83;;
84168;SDS011;74295;50.146;8.794;2024-01-25T03:23:53;31.97;;;6.80;;
84168;SDS011;74295;50.146;8.794;2024-01-25T03:33:56;29.83;;;7.03;;
84168;SDS011;74295;50.146;8.794;2024-01-25T03:44:03;26.40;;;7.07;;
84168;SDS011;74295;50.146;8.794;2024-01-25T03:54:06;31.87;;;6.17;;
84168;SDS011;74295;50.146;8.794;2024-01-25T04:04:12;31.20;;;6.13;;
84168;SDS011;74295;50.146;8.794;2024-01-25T04:14:16;27.83;;;6.47;;
84168;SDS011;74295;50.146;8.794;2024-01-25T04:24:20;28.83;;;5.43;;
84168;SDS011;74295;50.146;8.794;2024-01-25T04:34:23;30.50;;;6.37;;
84168;SDS011;74295;50.146;8.794;2024-01-25T04:44:27;34.47;;;5.50;;
84168;SDS011;74295;50.146;8.794;2024-01-25T04:54:30;22.83;;;6.17;;
84168;SDS011;74295;50.146;8.794;2024-01-25T05:04:34;24.90;;;5.43;;
84168;SDS011;74295;50.146;8.794;2024-01-25T05:14:37;26.03;;;5.70;;
84168;SDS011;74295;50.146;8.794;2024-01-25T05:24:41;23.67;;;6.13;;
84168;SDS011;74295;50.146;8.794;2024-01-25T05:34:44;25.43;;;6.13;;
84168;SDS011;74295;50.146;8.794;2024-01-25T05:44:48;22.30;;;6.77;;
84168;SDS011;74295;50.146;8.794;2024-01-25T05:54:51;24.60;;;5.50;;
84168;SDS011;74295;50.146;8.794;2024-01-25T06:04:55;31.10;;;6.23;;
84168;SDS011;74295;50.146;8.794;2024-01-25T06:15:00;28.03;;;5.83;;
84168;SDS011;74295;50.146;8.794;2024-01-25T06:25:04;34.27;;;8.83;;
84168;SDS011;74295;50.146;8.794;2024-01-25T06:35:09;24.40;;;5.57;;
84168;SDS011;74295;50.146;8.794;2024-01-25T06:45:13;33.83;;;7.57;;
84168;SDS011;74295;50.146;8.794;2024-01-25T06:55:16;32.73;;;6.87;;
84168;SDS011;74295;50.146;8.794;2024-01-25T07:05:20;33.07;;;7.30;;
84168;SDS011;74295;50.146;8.794;2024-01-25T07:15:23;25.17;;;6.57;;
84168;SDS011;74295;50.146;8.794;2024-01-25T07:25:27;37.83;;;9.27;;
84168;SDS011;74295;50.146;8.794;2024-01-25T07:35:30;29.43;;;9.10;;
84168;SDS011;74295;50.146;8.794;2024-01-25T07:45:34;42.27;;;10.27;;
84168;SDS011;74295;50.146;8.794;2024-01-25T07:55:37;27.67;;;8.20;;
84168;SDS011;74295;50.146;8.794;2024-01-25T08:05:41;32.57;;;6.40;;
84168;SDS011;74295;50.146;8.794;2024-01-25T08:15:51;25.27;;;6.60;;
84168;SDS011;74295;50.146;8.794;2024-01-25T08:25:56;28.63;;;7.40;;
84168;SDS011;74295;50.146;8.794;2024-01-25T08:35:58;24.63;;;6.20;;
84168;SDS011;74295;50.146;8.794;2024-01-25T08:46:03;27.77;;;6.37;;
84168;SDS011;74295;50.146;8.794;2024-01-25T08:56:06;25.90;;;6.77;;
84168;SDS011;74295;50.146;8.794;2024-01-25T09:06:10;32.33;;;7.80;;
84168;SDS011;74295;50.146;8.794;2024-01-25T09:16:13;39.03;;;7.33;;
84168;SDS011;74295;50.146;8.794;2024-01-25T09:26:19;33.07;;;7.40;;
84168;SDS011;74295;50.146;8.794;2024-01-25T09:36:22;25.17;;;6.67;;
84168;SDS011;74295;50.146;8.794;2024-01-25T09:46:26;37.50;;;8.03;;
84168;SDS011;74295;50.146;8.794;2024-01-25T09:56:30;31.37;;;7.07;;
84168;SDS011;74295;50.146;8.794;2024-01-25T10:06:36;32.17;;;8.07;;
84168;SDS011;74295;50.146;8.794;2024-01-25T10:16:39;30.93;;;6.23;;
84168;SDS011;74295;50.146;8.794;2024-01-25T10:26:43;24.27;;;6.63;;
84168;SDS011;74295;50.146;8.794;2024-01-25T10:36:46;30.03;;;6.13;;
84168;SDS011;74295;50.146;8.794;2024-01-25T10:46:53;33.30;;;7.37;;
84168;SDS011;74295;50.146;8.794;2024-01-25T10:56:56;25.53;;;6.23;;
84168;SDS011;74295;50.146;8.794;2024-01-25T11:07:05;24.13;;;6.07;;
84168;SDS011;74295;50.146;8.794;2024-01-25T11:17:18;26.73;;;6.73;;
84168;SDS011;74295;50.146;8.794;2024-01-25T11:27:22;27.07;;;6.83;;
84168;SDS011;74295;50.146;8.794;2024-01-25T11:37:26;22.47;;;6.00;;
84168;SDS011;74295;50.146;8.794;2024-01-25T11:47:30;31.17;;;6.83;;
84168;SDS011;74295;50.146;8.794;2024-01-25T11:57:34;29.87;;;6.63;;
84168;SDS011;74295;50.146;8.794;2024-01-25T12:07:40;28.37;;;7.23;;
84168;SDS011;74295;50.146;8.794;2024-01-25T12:17:43;24.90;;;6.00;;
84168;SDS011;74295;50.146;8.794;2024-01-25T12:27:48;28.60;;;6.13;;
84168;SDS011;74295;50.146;8.794;2024-01-25T12:37:54;30.87;;;6.70;;
84168;SDS011;74295;50.146;8.794;2024-01-25T12:47:59;26.20;;;5.60;;
84168;SDS011;74295;50.146;8.794;2024-01-25T12:58:05;20.53;;;5.70;;
84168;SDS011;74295;50.146;8.794;2024-01-25T13:08:10;16.67;;;5.73;;
84168;SDS011;74295;50.146;8.794;2024-01-25T13:18:12;27.10;;;6.10;;
84168;SDS011;74295;50.146;8.794;2024-01-25T13:28:16;21.07;;;4.90;;
84168;SDS011;74295;50.146;8.794;2024-01-25T13:38:23;22.70;;;5.33;;
84168;SDS011;74295;50.146;8.794;2024-01-25T13:48:27;23.60;;;5.43;;
84168;SDS011;74295;50.146;8.794;2024-01-25T13:58:30;20.13;;;4.93;;
84168;SDS011;74295;50.146;8.794;2024-01-25T14:08:34;21.43;;;6.20;;
84168;SDS011;74295;50.146;8.794;2024-01-25T14:18:37;18.80;;;5.33;;
84168;SDS011;74295;50.146;8.794;2024-01-25T14:28:43;18.47;;;4.60;;
84168;SDS011;74295;50.146;8.794;2024-01-25T14:38:46;23.07;;;5.27;;
84168;SDS011;74295;50.146;8.794;2024-01-25T14:48:50;19.17;;;4.97;;
84168;SDS011;74295;50.146;8.794;2024-01-25T14:58:53;27.23;;;5.43;;
84168;SDS011;74295;50.146;8.794;2024-01-25T15:08:57;27.47;;;4.97;;
84168;SDS011;74295;50.146;8.794;2024-01-25T15:19:00;23.37;;;5.40;;
84168;SDS011;74295;50.146;8.794;2024-01-25T15:29:04;21.83;;;5.17;;
84168;SDS011;74295;50.146;8.794;2024-01-25T15:39:06;28.43;;;6.53;;
84168;SDS011;74295;50.146;8.794;2024-01-25T15:49:10;20.77;;;5.40;;
84168;SDS011;74295;50.146;8.794;2024-01-25T15:59:13;26.63;;;5.73;;
84168;SDS011;74295;50.146;8.794;2024-01-25T16:09:17;22.63;;;5.63;;
84168;SDS011;74295;50.146;8.794;2024-01-25T16:19:20;23.93;;;6.87;;
84168;SDS011;74295;50.146;8.794;2024-01-25T16:29:24;23.33;;;6.27;;
84168;SDS011;74295;50.146;8.794;2024-01-25T16:39:27;22.93;;;6.43;;
84168;SDS011;74295;50.146;8.794;2024-01-25T16:49:31;25.53;;;6.97;;
84168;SDS011;74295;50.146;8.794;2024-01-25T16:59:33;25.53;;;6.83;;
84168;SDS011;74295;50.146;8.794;2024-01-25T17:09:37;22.37;;;5.67;;
84168;SDS011;74295;50.146;8.794;2024-01-25T17:19:40;27.63;;;8.60;;
84168;SDS011;74295;50.146;8.794;2024-01-25T17:29:44;23.43;;;8.27;;
84168;SDS011;74295;50.146;8.794;2024-01-25T17:39:47;34.80;;;8.80;;
84168;SDS011;74295;50.146;8.794;2024-01-25T17:49:51;115.23;;;64.97;;
84168;SDS011;74295;50.146;8.794;2024-01-25T17:59:54;88.53;;;45.27;;
84168;SDS011;74295;50.146;8.794;2024-01-25T18:09:58;46.37;;;23.50;;
84168;SDS011;74295;50.146;8.794;2024-01-25T18:20:01;33.77;;;12.70;;
84168;SDS011;74295;50.146;8.794;2024-01-25T18:30:08;28.73;;;10.20;;
84168;SDS011;74295;50.146;8.794;2024-01-25T18:40:11;31.23;;;10.83;;
84168;SDS011;74295;50.146;8.794;2024-01-25T18:50:15;31.70;;;12.53;;
84168;SDS011;74295;50.146;8.794;2024-01-25T19:00:18;36.57;;;13.57;;
84168;SDS011;74295;50.146;8.794;2024-01-25T19:10:23;28.83;;;12.13;;
84168;SDS011;74295;50.146;8.794;2024-01-25T19:20:26;36.77;;;12.10;;
84168;SDS011;74295;50.146;8.794;2024-01-25T19:30:30;26.87;;;10.00;;
84168;SDS011;74295;50.146;8.794;2024-01-25T19:40:34;41.07;;;13.13;;
84168;SDS011;74295;50.146;8.794;2024-01-25T19:50:39;37.47;;;14.97;;
84168;SDS011;74295;50.146;8.794;2024-01-25T20:00:42;60.73;;;28.00;;
84168;SDS011;74295;50.146;8.794;2024-01-25T20:10:46;37.50;;;12.07;;
84168;SDS011;74295;50.146;8.794;2024-01-25T20:20:49;32.53;;;13.13;;
84168;SDS011;74295;50.146;8.794;2024-01-25T20:30:53;40.33;;;14.27;;
84168;SDS011;74295;50.146;8.794;2024-01-25T20:40:56;21.53;;;5.90;;
84168;SDS011;74295;50.146;8.794;2024-01-25T20:51:00;51.57;;;19.57;;
84168;SDS011;74295;50.146;8.794;2024-01-25T21:01:03;26.27;;;8.73;;
84168;SDS011;74295;50.146;8.794;2024-01-25T21:11:09;40.30;;;15.60;;
84168;SDS011;74295;50.146;8.794;2024-01-25T21:21:15;43.67;;;14.50;;
84168;SDS011;74295;50.146;8.794;2024-01-25T21:31:19;42.07;;;17.07;;
84168;SDS011;74295;50.146;8.794;2024-01-25T21:41:22;38.37;;;19.83;;
84168;SDS011;74295;50.146;8.794;2024-01-25T21:51:26;34.13;;;12.97;;
84168;SDS011;74295;50.146;8.794;2024-01-25T22:01:29;33.13;;;12.67;;
84168;SDS011;74295;50.146;8.794;2024-01-25T22:11:33;33.07;;;11.27;;
84168;SDS011;74295;50.146;8.794;2024-01-25T22:21:36;30.00;;;11.53;;
84168;SDS011;74295;50.146;8.794;2024-01-25T22:31:40;25.03;;;9.50;;
84168;SDS011;74295;50.146;8.794;2024-01-25T22:41:43;34.63;;;12.83;;
84168;SDS011;74295;50.146;8.794;2024-01-25T22:51:47;28.87;;;16.17;;
84168;SDS011;74295;50.146;8.794;2024-01-25T23:01:49;28.43;;;15.83;;
84168;SDS011;74295;50.146;8.794;2024-01-25T23:11:54;26.83;;;16.43;;
84168;SDS011;74295;50.146;8.794;2024-01-25T23:21:57;32.83;;;16.93;;
84168;SDS011;74295;50.146;8.794;2024-01-25T23:32:01;25.10;;;16.53;;
84168;SDS011;74295;50.146;8.794;2024-01-25T23:42:04;27.77;;;19.30;;
84168;SDS011;74295;50.146;8.794;2024-01-25T23:52:10;29.63;;;19.93;;
